Etusivu
METAR-TAF:

METAR-TAF

Lentoasemat :

Tongatapu, Tonga

Leveyspiiri: 21-14S, Pituuspiiri: 175-09W, korkeus merenpinnasta: 38 m

Tämänhetkinen sää

Tämä raportti tehtiin 48 minuuttia sitten, kello 01.00 UTC
Tuuli 8 kn idästä/kaakosta
Lämpötila 27°C
Kosteus 58%
Ilmanpaine 1013 hPa
Näkyvyys 10 km tai enemmän
Muutamia pilviä 1600 ft:n korkeudessa, Kasvava cumulus-pilvi.

METAR: NFTF 250100Z 11008KT 9999 FEW016TCU 27/18 Q1013 RMK DRY AIR 57

Aika: 15:48 (01:48 UTC)

Sääennuste

Tämä raportti tehtiin 2 tuntia ja 34 minuuttia sitten, kello 23.14 UTC
Ennuste voimassa 25. päivästä klo 00 UTC - 25. päivään klo 24 UTC
Tuuli 12 kn kaakosta
Näkyvyys 10 km tai enemmän
Muutamia pilviä 1700 ft:n korkeudessa

TAF: NFTF 242314Z 2500/2524 13012KT 9999 FEW017

Säähavainnot ja -ennusteet yli 4000 lentoasemalta (METAR- ja TAF-raportit).

Käytössä olevat sääasemat on merkitty karttaan keltaisilla ja punaisilla pisteillä.

Aseta hiiri pisteen päälle nähdäksesi sääaseman nimen.

Klikkaa sitten nähdäksesi säähavainnot ja -ennusteet.

Kartan vaihtaminen: klikkaa mustalla rastilla varustettuja vihreitä pisteitä, niin voit zoomata sisään; viivalla varustettua vihreää pistettä, niin voit zoomata ulos tai vihreitä nuolia, niin pääset viereisille kartoille.


METAR-TAF: